sensor_id;sensor_type;location;lat;lon;timestamp;pressure;altitude;pressure_sealevel;temperature;humidity
24752;BME280;27246;52.376;4.628;2023-05-01T00:02:01;101725.59;;;12.54;76.69
24752;BME280;27246;52.376;4.628;2023-05-01T00:07:03;101716.78;;;12.51;76.91
24752;BME280;27246;52.376;4.628;2023-05-01T00:12:05;101718.69;;;12.50;75.39
24752;BME280;27246;52.376;4.628;2023-05-01T00:17:06;101708.84;;;12.48;71.11
24752;BME280;27246;52.376;4.628;2023-05-01T00:22:08;101713.88;;;12.44;69.47
24752;BME280;27246;52.376;4.628;2023-05-01T00:27:10;101696.44;;;12.44;67.45
24752;BME280;27246;52.376;4.628;2023-05-01T00:32:13;101694.53;;;12.44;66.54
24752;BME280;27246;52.376;4.628;2023-05-01T00:37:15;101694.69;;;12.43;64.89
24752;BME280;27246;52.376;4.628;2023-05-01T00:42:18;101682.94;;;12.49;65.86
24752;BME280;27246;52.376;4.628;2023-05-01T00:47:20;101683.50;;;12.36;64.20
24752;BME280;27246;52.376;4.628;2023-05-01T00:52:23;101681.25;;;12.23;64.74
24752;BME280;27246;52.376;4.628;2023-05-01T00:57:25;101662.06;;;12.21;63.63
24752;BME280;27246;52.376;4.628;2023-05-01T01:02:26;101655.19;;;12.17;63.38
24752;BME280;27246;52.376;4.628;2023-05-01T01:07:38;101635.84;;;12.17;63.21
24752;BME280;27246;52.376;4.628;2023-05-01T01:18:18;101631.53;;;12.15;62.77
24752;BME280;27246;52.376;4.628;2023-05-01T01:23:54;101622.56;;;12.05;62.36
24752;BME280;27246;52.376;4.628;2023-05-01T01:34:39;101608.59;;;12.06;62.76
24752;BME280;27246;52.376;4.628;2023-05-01T01:40:08;101588.94;;;12.01;62.50
24752;BME280;27246;52.376;4.628;2023-05-01T01:45:16;101590.66;;;12.02;62.41
24752;BME280;27246;52.376;4.628;2023-05-01T01:50:24;101578.41;;;11.96;62.58
24752;BME280;27246;52.376;4.628;2023-05-01T01:55:29;101569.28;;;11.88;62.73
24752;BME280;27246;52.376;4.628;2023-05-01T02:00:34;101564.28;;;11.91;62.21
24752;BME280;27246;52.376;4.628;2023-05-01T02:05:41;101562.03;;;11.78;62.40
24752;BME280;27246;52.376;4.628;2023-05-01T02:10:46;101550.19;;;11.61;63.22
24752;BME280;27246;52.376;4.628;2023-05-01T02:15:50;101548.28;;;11.62;63.65
24752;BME280;27246;52.376;4.628;2023-05-01T02:20:53;101538.44;;;11.59;63.61
24752;BME280;27246;52.376;4.628;2023-05-01T02:25:57;101535.53;;;11.61;63.90
24752;BME280;27246;52.376;4.628;2023-05-01T02:31:02;101539.50;;;11.67;63.36
24752;BME280;27246;52.376;4.628;2023-05-01T02:36:04;101539.28;;;11.68;63.12
24752;BME280;27246;52.376;4.628;2023-05-01T02:41:08;101538.28;;;11.61;63.98
24752;BME280;27246;52.376;4.628;2023-05-01T02:46:13;101532.41;;;11.56;63.84
24752;BME280;27246;52.376;4.628;2023-05-01T02:51:18;101527.41;;;11.59;63.70
24752;BME280;27246;52.376;4.628;2023-05-01T02:56:21;101527.59;;;11.50;64.50
24752;BME280;27246;52.376;4.628;2023-05-01T03:01:23;101519.50;;;11.48;63.58
24752;BME280;27246;52.376;4.628;2023-05-01T03:06:25;101501.06;;;11.49;64.29
24752;BME280;27246;52.376;4.628;2023-05-01T03:11:29;101508.13;;;11.51;65.28
24752;BME280;27246;52.376;4.628;2023-05-01T03:16:31;101505.19;;;11.53;65.33
24752;BME280;27246;52.376;4.628;2023-05-01T03:21:32;101489.66;;;11.52;66.03
24752;BME280;27246;52.376;4.628;2023-05-01T03:26:34;101488.28;;;11.48;66.58
24752;BME280;27246;52.376;4.628;2023-05-01T03:31:36;101476.94;;;11.43;66.50
24752;BME280;27246;52.376;4.628;2023-05-01T03:36:38;101475.56;;;11.38;66.43
24752;BME280;27246;52.376;4.628;2023-05-01T03:41:39;101476.56;;;11.37;67.33
24752;BME280;27246;52.376;4.628;2023-05-01T03:46:56;101474.34;;;11.33;67.87
24752;BME280;27246;52.376;4.628;2023-05-01T03:52:03;101474.88;;;11.20;68.28
24752;BME280;27246;52.376;4.628;2023-05-01T03:57:05;101461.97;;;11.20;68.47
24752;BME280;27246;52.376;4.628;2023-05-01T04:02:06;101458.16;;;11.21;68.84
24752;BME280;27246;52.376;4.628;2023-05-01T04:07:10;101462.47;;;11.24;69.30
24752;BME280;27246;52.376;4.628;2023-05-01T04:12:12;101452.16;;;11.18;69.60
24752;BME280;27246;52.376;4.628;2023-05-01T04:17:15;101448.34;;;11.11;69.48
24752;BME280;27246;52.376;4.628;2023-05-01T04:22:18;101450.41;;;11.09;68.34
24752;BME280;27246;52.376;4.628;2023-05-01T04:27:20;101443.00;;;11.09;67.40
24752;BME280;27246;52.376;4.628;2023-05-01T04:32:22;101455.56;;;11.12;67.01
24752;BME280;27246;52.376;4.628;2023-05-01T04:37:24;101446.13;;;10.98;67.21
24752;BME280;27246;52.376;4.628;2023-05-01T04:42:30;101452.13;;;11.10;68.24
24752;BME280;27246;52.376;4.628;2023-05-01T04:47:32;101440.06;;;11.11;68.63
24752;BME280;27246;52.376;4.628;2023-05-01T04:52:34;101444.03;;;11.16;67.23
24752;BME280;27246;52.376;4.628;2023-05-01T04:57:37;101440.75;;;11.21;63.75
24752;BME280;27246;52.376;4.628;2023-05-01T05:02:41;101442.97;;;11.26;63.11
24752;BME280;27246;52.376;4.628;2023-05-01T05:07:44;101446.41;;;11.28;62.44
24752;BME280;27246;52.376;4.628;2023-05-01T05:13:04;101438.50;;;11.33;62.47
24752;BME280;27246;52.376;4.628;2023-05-01T05:18:06;101435.91;;;11.31;61.87
24752;BME280;27246;52.376;4.628;2023-05-01T05:23:08;101449.38;;;11.26;61.81
24752;BME280;27246;52.376;4.628;2023-05-01T05:28:12;101436.75;;;11.32;60.74
24752;BME280;27246;52.376;4.628;2023-05-01T05:33:15;101434.00;;;11.32;61.15
24752;BME280;27246;52.376;4.628;2023-05-01T05:38:17;101437.97;;;11.37;60.56
24752;BME280;27246;52.376;4.628;2023-05-01T05:43:23;101427.59;;;11.39;60.22
24752;BME280;27246;52.376;4.628;2023-05-01T05:48:29;101433.47;;;11.45;60.81
24752;BME280;27246;52.376;4.628;2023-05-01T05:53:31;101433.97;;;11.40;60.40
24752;BME280;27246;52.376;4.628;2023-05-01T05:58:33;101424.69;;;11.41;60.88
24752;BME280;27246;52.376;4.628;2023-05-01T06:03:35;101424.16;;;11.37;60.99
24752;BME280;27246;52.376;4.628;2023-05-01T06:08:37;101422.25;;;11.38;61.12
24752;BME280;27246;52.376;4.628;2023-05-01T06:13:43;101422.41;;;11.53;61.02
24752;BME280;27246;52.376;4.628;2023-05-01T06:18:45;101425.19;;;11.45;60.91
24752;BME280;27246;52.376;4.628;2023-05-01T06:23:47;101428.81;;;11.45;61.05
24752;BME280;27246;52.376;4.628;2023-05-01T06:29:10;101417.59;;;11.47;60.87
24752;BME280;27246;52.376;4.628;2023-05-01T06:34:12;101417.25;;;11.41;59.80
24752;BME280;27246;52.376;4.628;2023-05-01T06:39:24;101426.88;;;11.54;59.07
24752;BME280;27246;52.376;4.628;2023-05-01T06:44:26;101425.50;;;11.50;58.04
24752;BME280;27246;52.376;4.628;2023-05-01T06:49:28;101426.13;;;11.68;57.59
24752;BME280;27246;52.376;4.628;2023-05-01T06:54:29;101428.91;;;11.68;57.72
24752;BME280;27246;52.376;4.628;2023-05-01T06:59:31;101419.06;;;11.74;57.42
24752;BME280;27246;52.376;4.628;2023-05-01T07:04:33;101422.44;;;11.84;56.87
24752;BME280;27246;52.376;4.628;2023-05-01T07:09:35;101420.19;;;11.88;56.86
24752;BME280;27246;52.376;4.628;2023-05-01T07:14:37;101420.13;;;12.04;56.69
24752;BME280;27246;52.376;4.628;2023-05-01T07:19:39;101427.16;;;12.15;56.32
24752;BME280;27246;52.376;4.628;2023-05-01T07:24:40;101427.16;;;12.15;55.33
24752;BME280;27246;52.376;4.628;2023-05-01T07:29:42;101418.63;;;12.25;55.43
24752;BME280;27246;52.376;4.628;2023-05-01T07:34:54;101412.75;;;12.28;55.46
24752;BME280;27246;52.376;4.628;2023-05-01T07:39:56;101422.03;;;12.35;55.23
24752;BME280;27246;52.376;4.628;2023-05-01T07:44:59;101423.78;;;12.36;55.26
24752;BME280;27246;52.376;4.628;2023-05-01T07:50:02;101413.97;;;12.33;54.82
24752;BME280;27246;52.376;4.628;2023-05-01T07:55:05;101424.03;;;12.49;54.83
24752;BME280;27246;52.376;4.628;2023-05-01T08:00:08;101421.91;;;12.59;54.55
24752;BME280;27246;52.376;4.628;2023-05-01T08:05:16;101420.78;;;12.69;54.22
24752;BME280;27246;52.376;4.628;2023-05-01T08:10:20;101422.06;;;12.81;54.85
24752;BME280;27246;52.376;4.628;2023-05-01T08:15:22;101423.91;;;12.89;54.26
24752;BME280;27246;52.376;4.628;2023-05-01T08:20:24;101427.44;;;12.97;54.50
24752;BME280;27246;52.376;4.628;2023-05-01T08:25:26;101423.19;;;13.10;55.23
24752;BME280;27246;52.376;4.628;2023-05-01T08:30:27;101422.13;;;12.96;53.91
24752;BME280;27246;52.376;4.628;2023-05-01T08:35:29;101420.72;;;13.15;54.81
24752;BME280;27246;52.376;4.628;2023-05-01T08:40:37;101435.63;;;13.14;53.71
24752;BME280;27246;52.376;4.628;2023-05-01T08:45:41;101430.00;;;13.37;54.51
24752;BME280;27246;52.376;4.628;2023-05-01T08:50:45;101434.59;;;13.45;55.48
24752;BME280;27246;52.376;4.628;2023-05-01T08:55:48;101438.53;;;13.50;55.38
24752;BME280;27246;52.376;4.628;2023-05-01T09:00:52;101440.81;;;13.47;55.32
24752;BME280;27246;52.376;4.628;2023-05-01T09:05:58;101444.19;;;13.57;55.26
24752;BME280;27246;52.376;4.628;2023-05-01T09:11:03;101443.03;;;13.66;53.52
24752;BME280;27246;52.376;4.628;2023-05-01T09:16:06;101446.09;;;13.71;54.38
24752;BME280;27246;52.376;4.628;2023-05-01T09:21:08;101458.16;;;13.78;51.38
24752;BME280;27246;52.376;4.628;2023-05-01T09:26:13;101459.56;;;13.89;52.94
24752;BME280;27246;52.376;4.628;2023-05-01T09:31:21;101460.19;;;14.06;50.80
24752;BME280;27246;52.376;4.628;2023-05-01T09:36:26;101461.72;;;14.24;49.67
24752;BME280;27246;52.376;4.628;2023-05-01T09:41:29;101464.84;;;14.72;48.40
24752;BME280;27246;52.376;4.628;2023-05-01T09:46:40;101462.03;;;14.87;46.98
24752;BME280;27246;52.376;4.628;2023-05-01T09:51:42;101459.16;;;15.02;47.01
24752;BME280;27246;52.376;4.628;2023-05-01T09:56:48;101470.94;;;15.32;44.68
24752;BME280;27246;52.376;4.628;2023-05-01T10:01:50;101467.47;;;15.23;43.24
24752;BME280;27246;52.376;4.628;2023-05-01T10:06:53;101481.53;;;15.22;44.25
24752;BME280;27246;52.376;4.628;2023-05-01T10:11:55;101479.25;;;15.04;45.69
24752;BME280;27246;52.376;4.628;2023-05-01T10:16:58;101483.34;;;14.86;47.59
24752;BME280;27246;52.376;4.628;2023-05-01T10:22:00;101483.38;;;14.71;50.13
24752;BME280;27246;52.376;4.628;2023-05-01T10:27:02;101498.34;;;14.55;51.39
24752;BME280;27246;52.376;4.628;2023-05-01T10:32:07;101507.16;;;14.44;50.07
24752;BME280;27246;52.376;4.628;2023-05-01T10:37:12;101501.63;;;14.44;50.18
24752;BME280;27246;52.376;4.628;2023-05-01T10:42:16;101518.56;;;14.34;50.22
24752;BME280;27246;52.376;4.628;2023-05-01T10:58:14;101512.00;;;13.91;64.37
24752;BME280;27246;52.376;4.628;2023-05-01T11:03:35;101515.09;;;13.58;64.13
24752;BME280;27246;52.376;4.628;2023-05-01T11:08:37;101512.63;;;13.63;67.35
24752;BME280;27246;52.376;4.628;2023-05-01T11:14:01;101518.84;;;13.65;71.22
24752;BME280;27246;52.376;4.628;2023-05-01T11:19:03;101520.22;;;13.46;70.53
24752;BME280;27246;52.376;4.628;2023-05-01T11:24:05;101514.38;;;13.41;73.47
24752;BME280;27246;52.376;4.628;2023-05-01T11:29:10;101508.34;;;13.37;75.71
24752;BME280;27246;52.376;4.628;2023-05-01T11:34:12;101511.13;;;13.37;77.46
24752;BME280;27246;52.376;4.628;2023-05-01T11:39:14;101496.53;;;13.44;80.03
24752;BME280;27246;52.376;4.628;2023-05-01T11:44:20;101499.75;;;13.32;79.18
24752;BME280;27246;52.376;4.628;2023-05-01T11:49:28;101497.00;;;13.32;81.29
24752;BME280;27246;52.376;4.628;2023-05-01T11:54:30;101497.88;;;13.48;83.26
24752;BME280;27246;52.376;4.628;2023-05-01T11:59:32;101494.25;;;13.47;81.67
24752;BME280;27246;52.376;4.628;2023-05-01T12:04:33;101488.13;;;13.52;82.39
24752;BME280;27246;52.376;4.628;2023-05-01T12:09:35;101487.16;;;13.68;84.52
24752;BME280;27246;52.376;4.628;2023-05-01T12:14:38;101482.75;;;13.73;82.79
24752;BME280;27246;52.376;4.628;2023-05-01T12:19:50;101483.34;;;13.84;84.11
24752;BME280;27246;52.376;4.628;2023-05-01T12:24:51;101490.28;;;13.94;82.75
24752;BME280;27246;52.376;4.628;2023-05-01T12:29:53;101485.81;;;14.08;82.63
24752;BME280;27246;52.376;4.628;2023-05-01T12:34:55;101488.84;;;14.79;78.81
24752;BME280;27246;52.376;4.628;2023-05-01T12:39:57;101485.59;;;15.19;78.52
24752;BME280;27246;52.376;4.628;2023-05-01T12:45:02;101476.72;;;15.58;77.36
24752;BME280;27246;52.376;4.628;2023-05-01T12:50:05;101481.16;;;15.53;72.22
24752;BME280;27246;52.376;4.628;2023-05-01T12:55:09;101476.63;;;15.45;70.99
24752;BME280;27246;52.376;4.628;2023-05-01T13:00:13;101482.00;;;15.25;70.26
24752;BME280;27246;52.376;4.628;2023-05-01T13:05:15;101482.94;;;15.32;71.06
24752;BME280;27246;52.376;4.628;2023-05-01T13:10:30;101485.59;;;15.19;65.82
24752;BME280;27246;52.376;4.628;2023-05-01T13:15:32;101486.00;;;15.16;65.43
24752;BME280;27246;52.376;4.628;2023-05-01T13:20:34;101485.25;;;15.29;66.40
24752;BME280;27246;52.376;4.628;2023-05-01T13:25:39;101487.84;;;15.30;61.40
24752;BME280;27246;52.376;4.628;2023-05-01T13:30:41;101488.22;;;15.27;62.86
24752;BME280;27246;52.376;4.628;2023-05-01T13:35:43;101492.97;;;15.33;63.92
24752;BME280;27246;52.376;4.628;2023-05-01T13:40:45;101483.25;;;15.44;63.00
24752;BME280;27246;52.376;4.628;2023-05-01T13:45:46;101498.19;;;15.71;65.71
24752;BME280;27246;52.376;4.628;2023-05-01T13:50:48;101500.28;;;15.91;62.44
24752;BME280;27246;52.376;4.628;2023-05-01T13:55:50;101489.00;;;15.99;62.27
24752;BME280;27246;52.376;4.628;2023-05-01T14:00:52;101489.16;;;16.39;60.68
24752;BME280;27246;52.376;4.628;2023-05-01T14:05:53;101501.31;;;16.79;58.23
24752;BME280;27246;52.376;4.628;2023-05-01T14:10:57;101502.66;;;16.42;60.32
24752;BME280;27246;52.376;4.628;2023-05-01T14:15:59;101499.66;;;15.95;62.02
24752;BME280;27246;52.376;4.628;2023-05-01T14:21:01;101500.00;;;15.86;62.60
24752;BME280;27246;52.376;4.628;2023-05-01T14:26:03;101508.31;;;16.20;61.49
24752;BME280;27246;52.376;4.628;2023-05-01T14:31:06;101506.66;;;16.33;62.66
24752;BME280;27246;52.376;4.628;2023-05-01T14:36:08;101506.47;;;16.89;62.39
24752;BME280;27246;52.376;4.628;2023-05-01T14:41:10;101509.53;;;16.46;59.26
24752;BME280;27246;52.376;4.628;2023-05-01T14:46:14;101510.53;;;16.32;59.42
24752;BME280;27246;52.376;4.628;2023-05-01T14:51:18;101509.81;;;16.65;58.13
24752;BME280;27246;52.376;4.628;2023-05-01T14:56:21;101525.66;;;16.23;57.67
24752;BME280;27246;52.376;4.628;2023-05-01T15:01:24;101528.97;;;16.05;58.99
24752;BME280;27246;52.376;4.628;2023-05-01T15:06:26;101537.88;;;16.28;60.06
24752;BME280;27246;52.376;4.628;2023-05-01T15:11:29;101545.56;;;16.68;59.10
24752;BME280;27246;52.376;4.628;2023-05-01T15:16:30;101543.28;;;16.91;59.11
24752;BME280;27246;52.376;4.628;2023-05-01T15:21:33;101536.31;;;16.60;59.02
24752;BME280;27246;52.376;4.628;2023-05-01T15:26:34;101536.09;;;16.55;58.93
24752;BME280;27246;52.376;4.628;2023-05-01T15:31:36;101533.72;;;16.52;58.90
24752;BME280;27246;52.376;4.628;2023-05-01T15:36:38;101544.09;;;16.78;59.38
24752;BME280;27246;52.376;4.628;2023-05-01T15:41:41;101549.22;;;16.75;57.72
24752;BME280;27246;52.376;4.628;2023-05-01T15:46:45;101548.75;;;16.65;58.37
24752;BME280;27246;52.376;4.628;2023-05-01T15:51:50;101549.56;;;16.58;58.79
24752;BME280;27246;52.376;4.628;2023-05-01T15:56:52;101547.81;;;16.44;59.28
24752;BME280;27246;52.376;4.628;2023-05-01T16:01:54;101544.34;;;16.35;59.65
24752;BME280;27246;52.376;4.628;2023-05-01T16:06:57;101555.25;;;16.37;57.84
24752;BME280;27246;52.376;4.628;2023-05-01T16:12:00;101559.19;;;16.49;58.15
24752;BME280;27246;52.376;4.628;2023-05-01T16:17:04;101558.13;;;16.15;57.54
24752;BME280;27246;52.376;4.628;2023-05-01T16:22:06;101555.66;;;16.27;58.56
24752;BME280;27246;52.376;4.628;2023-05-01T16:27:14;101563.56;;;16.30;58.41
24752;BME280;27246;52.376;4.628;2023-05-01T16:32:20;101569.06;;;16.17;57.71
24752;BME280;27246;52.376;4.628;2023-05-01T16:37:24;101575.84;;;16.08;58.82
24752;BME280;27246;52.376;4.628;2023-05-01T16:42:27;101574.84;;;15.87;60.38
24752;BME280;27246;52.376;4.628;2023-05-01T16:47:30;101586.22;;;15.71;62.49
24752;BME280;27246;52.376;4.628;2023-05-01T16:52:33;101581.00;;;15.61;62.77
24752;BME280;27246;52.376;4.628;2023-05-01T16:57:36;101580.00;;;15.47;63.39
24752;BME280;27246;52.376;4.628;2023-05-01T17:02:38;101587.41;;;15.62;64.32
24752;BME280;27246;52.376;4.628;2023-05-01T17:07:40;101594.59;;;15.56;64.57
24752;BME280;27246;52.376;4.628;2023-05-01T17:12:42;101603.06;;;15.48;65.14
24752;BME280;27246;52.376;4.628;2023-05-01T17:17:44;101610.16;;;15.29;65.02
24752;BME280;27246;52.376;4.628;2023-05-01T17:22:46;101613.53;;;15.24;65.78
24752;BME280;27246;52.376;4.628;2023-05-01T17:27:51;101624.41;;;15.26;65.67
24752;BME280;27246;52.376;4.628;2023-05-01T17:32:53;101618.22;;;14.87;67.38
24752;BME280;27246;52.376;4.628;2023-05-01T17:37:55;101621.94;;;14.65;69.56
24752;BME280;27246;52.376;4.628;2023-05-01T17:42:57;101621.47;;;14.61;70.70
24752;BME280;27246;52.376;4.628;2023-05-01T17:47:58;101630.19;;;14.58;71.65
24752;BME280;27246;52.376;4.628;2023-05-01T17:53:01;101626.44;;;14.51;72.88
24752;BME280;27246;52.376;4.628;2023-05-01T17:58:03;101631.03;;;14.29;73.80
24752;BME280;27246;52.376;4.628;2023-05-01T18:03:04;101637.69;;;14.05;75.57
24752;BME280;27246;52.376;4.628;2023-05-01T18:08:06;101638.56;;;14.05;76.36
24752;BME280;27246;52.376;4.628;2023-05-01T18:13:08;101653.53;;;13.96;76.79
24752;BME280;27246;52.376;4.628;2023-05-01T18:18:10;101650.75;;;13.81;77.95
24752;BME280;27246;52.376;4.628;2023-05-01T18:23:12;101661.66;;;13.83;77.48
24752;BME280;27246;52.376;4.628;2023-05-01T18:28:13;101659.31;;;13.71;78.83
24752;BME280;27246;52.376;4.628;2023-05-01T18:33:16;101665.25;;;13.60;79.23
24752;BME280;27246;52.376;4.628;2023-05-01T18:38:19;101670.13;;;13.58;79.73
24752;BME280;27246;52.376;4.628;2023-05-01T18:43:21;101679.78;;;13.62;79.48
24752;BME280;27246;52.376;4.628;2023-05-01T18:48:23;101674.47;;;13.52;79.99
24752;BME280;27246;52.376;4.628;2023-05-01T18:53:25;101687.81;;;13.49;80.35
24752;BME280;27246;52.376;4.628;2023-05-01T18:58:26;101682.28;;;13.17;81.26
24752;BME280;27246;52.376;4.628;2023-05-01T19:03:28;101685.06;;;13.17;82.18
24752;BME280;27246;52.376;4.628;2023-05-01T19:08:33;101691.16;;;13.13;81.40
24752;BME280;27246;52.376;4.628;2023-05-01T19:13:37;101702.97;;;12.98;80.98
24752;BME280;27246;52.376;4.628;2023-05-01T19:18:39;101706.47;;;12.92;81.81
24752;BME280;27246;52.376;4.628;2023-05-01T19:23:40;101715.78;;;12.91;81.49
24752;BME280;27246;52.376;4.628;2023-05-01T19:28:43;101715.81;;;12.83;82.49
24752;BME280;27246;52.376;4.628;2023-05-01T19:33:46;101721.00;;;12.86;82.13
24752;BME280;27246;52.376;4.628;2023-05-01T19:38:49;101723.47;;;12.73;82.12
24752;BME280;27246;52.376;4.628;2023-05-01T19:43:51;101742.81;;;12.73;82.56
24752;BME280;27246;52.376;4.628;2023-05-01T19:48:53;101744.53;;;12.82;83.04
24752;BME280;27246;52.376;4.628;2023-05-01T19:53:54;101753.84;;;12.81;82.12
24752;BME280;27246;52.376;4.628;2023-05-01T19:58:57;101753.19;;;12.71;81.38
24752;BME280;27246;52.376;4.628;2023-05-01T20:03:58;101752.50;;;12.69;81.36
24752;BME280;27246;52.376;4.628;2023-05-01T20:09:00;101772.91;;;12.59;81.64
24752;BME280;27246;52.376;4.628;2023-05-01T20:14:02;101769.47;;;12.57;82.41
24752;BME280;27246;52.376;4.628;2023-05-01T20:19:04;101770.34;;;12.50;82.25
24752;BME280;27246;52.376;4.628;2023-05-01T20:24:06;101770.69;;;12.38;83.03
24752;BME280;27246;52.376;4.628;2023-05-01T20:29:08;101777.41;;;12.28;83.16
24752;BME280;27246;52.376;4.628;2023-05-01T20:34:10;101774.84;;;12.34;83.20
24752;BME280;27246;52.376;4.628;2023-05-01T20:39:12;101783.94;;;12.27;83.40
24752;BME280;27246;52.376;4.628;2023-05-01T20:44:14;101777.28;;;12.29;84.04
24752;BME280;27246;52.376;4.628;2023-05-01T20:49:16;101782.56;;;12.23;84.31
24752;BME280;27246;52.376;4.628;2023-05-01T20:54:21;101795.69;;;12.20;84.30
24752;BME280;27246;52.376;4.628;2023-05-01T20:59:23;101799.50;;;12.11;84.92
24752;BME280;27246;52.376;4.628;2023-05-01T21:04:24;101795.53;;;12.14;85.05
24752;BME280;27246;52.376;4.628;2023-05-01T21:09:26;101804.34;;;12.17;85.53
24752;BME280;27246;52.376;4.628;2023-05-01T21:14:28;101802.78;;;12.15;85.43
24752;BME280;27246;52.376;4.628;2023-05-01T21:19:33;101799.13;;;12.06;86.37
24752;BME280;27246;52.376;4.628;2023-05-01T21:24:41;101805.50;;;11.90;86.95
24752;BME280;27246;52.376;4.628;2023-05-01T21:29:51;101810.00;;;11.91;87.27
24752;BME280;27246;52.376;4.628;2023-05-01T21:34:54;101812.91;;;11.81;87.99
24752;BME280;27246;52.376;4.628;2023-05-01T21:39:57;101819.81;;;11.86;88.04
24752;BME280;27246;52.376;4.628;2023-05-01T21:45:05;101830.72;;;11.87;87.58
24752;BME280;27246;52.376;4.628;2023-05-01T21:50:13;101834.31;;;11.79;87.90
24752;BME280;27246;52.376;4.628;2023-05-01T21:55:21;101861.06;;;11.79;88.45
24752;BME280;27246;52.376;4.628;2023-05-01T22:00:23;101837.91;;;11.80;88.95
24752;BME280;27246;52.376;4.628;2023-05-01T22:05:25;101855.50;;;11.71;89.00
24752;BME280;27246;52.376;4.628;2023-05-01T22:10:31;101867.41;;;11.71;90.46
24752;BME280;27246;52.376;4.628;2023-05-01T22:15:33;101874.50;;;11.82;90.55
24752;BME280;27246;52.376;4.628;2023-05-01T22:20:34;101871.75;;;11.82;90.61
24752;BME280;27246;52.376;4.628;2023-05-01T22:25:36;101866.09;;;11.92;90.93
24752;BME280;27246;52.376;4.628;2023-05-01T22:30:38;101875.91;;;11.86;89.97
24752;BME280;27246;52.376;4.628;2023-05-01T22:35:40;101888.53;;;11.89;89.53
24752;BME280;27246;52.376;4.628;2023-05-01T22:40:41;101900.94;;;11.85;89.41
24752;BME280;27246;52.376;4.628;2023-05-01T22:45:43;101911.31;;;11.91;88.16
24752;BME280;27246;52.376;4.628;2023-05-01T22:50:45;101917.34;;;11.94;86.83
24752;BME280;27246;52.376;4.628;2023-05-01T22:55:46;101917.19;;;12.04;84.92
24752;BME280;27246;52.376;4.628;2023-05-01T23:00:49;101929.59;;;11.92;84.92
24752;BME280;27246;52.376;4.628;2023-05-01T23:05:51;101933.75;;;11.96;83.58
24752;BME280;27246;52.376;4.628;2023-05-01T23:10:52;101940.38;;;12.19;82.71
24752;BME280;27246;52.376;4.628;2023-05-01T23:15:55;101935.31;;;11.98;82.91
24752;BME280;27246;52.376;4.628;2023-05-01T23:20:57;101954.00;;;11.70;84.12
24752;BME280;27246;52.376;4.628;2023-05-01T23:26:01;101956.28;;;11.75;84.24
24752;BME280;27246;52.376;4.628;2023-05-01T23:31:03;101954.75;;;11.80;84.82
24752;BME280;27246;52.376;4.628;2023-05-01T23:36:05;101959.47;;;11.62;86.15
24752;BME280;27246;52.376;4.628;2023-05-01T23:41:10;101958.84;;;11.76;86.88
24752;BME280;27246;52.376;4.628;2023-05-01T23:46:13;101944.88;;;11.78;86.43
24752;BME280;27246;52.376;4.628;2023-05-01T23:51:14;101953.59;;;11.57;87.25
24752;BME280;27246;52.376;4.628;2023-05-01T23:56:16;101966.19;;;11.94;85.01
